Time;durP1;ratioP1;P1;durP2;ratioP2;P2;SDS_P1;SDS_P2;PMS_P1;PMS_P2;Temp;Humidity;BMP_temperature;BMP_pressure;BME280_temperature;BME280_humidity;BME280_pressure;Samples;Min_cycle;Max_cycle;Signal;HPM_P1;HPM_P2
2021/11/14 00:01:39;;;;;;;26.17;17.48;;;10.70;99.90;;;;;;4936301;28;20115;-87
2021/11/14 00:04:07;;;;;;;28.33;17.73;;;10.70;99.90;;;;;;5009918;28;20039;-87
2021/11/14 00:06:33;;;;;;;25.52;17.60;;;10.70;99.90;;;;;;5024101;28;20071;-87
2021/11/14 00:08:58;;;;;;;25.10;17.27;;;10.60;99.90;;;;;;5015152;28;20035;-88
2021/11/14 00:11:25;;;;;;;25.10;16.92;;;10.60;99.90;;;;;;4948904;28;20052;-87
2021/11/14 00:13:51;;;;;;;24.10;17.65;;;10.60;99.90;;;;;;5011029;28;20036;-87
2021/11/14 00:16:21;;;;;;;24.52;17.73;;;10.60;99.90;;;;;;5012863;28;20024;-87
2021/11/14 00:18:48;;;;;;;26.17;18.07;;;10.60;99.90;;;;;;5014570;28;20028;-87
2021/11/14 00:21:16;;;;;;;29.20;18.48;;;10.60;99.90;;;;;;5011542;28;20444;-87
2021/11/14 00:23:42;;;;;;;26.75;18.52;;;10.60;99.90;;;;;;5022734;28;20050;-87
2021/11/14 00:26:11;;;;;;;24.77;17.30;;;10.60;99.90;;;;;;4968498;29;20118;-88
2021/11/14 00:28:39;;;;;;;25.52;17.95;;;10.50;99.90;;;;;;5036575;28;20060;-87
2021/11/14 00:31:10;;;;;;;26.42;18.15;;;10.50;99.90;;;;;;4957861;29;20027;-87
2021/11/14 00:33:36;;;;;;;24.08;16.45;;;10.50;99.90;;;;;;5007859;28;20027;-82
2021/11/14 00:36:02;;;;;;;26.85;16.92;;;10.50;99.90;;;;;;4993679;28;20042;-83
2021/11/14 00:38:28;;;;;;;24.15;17.02;;;10.50;99.90;;;;;;4943482;29;20028;-83
2021/11/14 00:40:54;;;;;;;22.13;16.10;;;10.50;99.90;;;;;;4995200;28;20276;-83
2021/11/14 00:43:20;;;;;;;23.02;15.95;;;10.50;99.90;;;;;;5011765;28;20033;-83
2021/11/14 00:45:46;;;;;;;24.40;16.70;;;10.50;99.90;;;;;;5034752;28;20091;-82
2021/11/14 00:48:14;;;;;;;24.95;16.15;;;10.40;99.90;;;;;;5045850;28;20409;-82
2021/11/14 00:50:44;;;;;;;24.73;16.20;;;10.40;99.90;;;;;;5034535;28;20060;-82
2021/11/14 00:53:17;;;;;;;22.48;15.73;;;10.40;99.90;;;;;;5002384;28;20475;-83
2021/11/14 00:55:43;;;;;;;25.33;16.60;;;10.40;99.90;;;;;;5002431;28;20091;-83
2021/11/14 00:58:09;;;;;;;24.90;15.77;;;10.40;99.90;;;;;;5018268;28;20022;-82
2021/11/14 01:00:36;;;;;;;24.33;17.17;;;10.40;99.90;;;;;;5036778;28;20022;-83
2021/11/14 01:03:04;;;;;;;24.52;16.60;;;10.40;99.90;;;;;;5014011;28;20018;-82
2021/11/14 01:05:32;;;;;;;23.85;16.88;;;10.40;99.90;;;;;;5017730;28;20068;-83
2021/11/14 01:07:59;;;;;;;23.27;16.50;;;10.40;99.90;;;;;;5035289;28;20026;-82
2021/11/14 01:10:29;;;;;;;22.90;15.40;;;10.30;99.90;;;;;;5032172;28;20037;-87
2021/11/14 01:12:56;;;;;;;26.08;17.33;;;10.40;99.90;;;;;;5035506;28;20017;-87
2021/11/14 01:15:24;;;;;;;22.88;15.93;;;10.30;99.90;;;;;;5029905;28;20049;-88
2021/11/14 01:17:50;;;;;;;24.48;16.75;;;10.30;99.90;;;;;;5048197;28;20033;-87
2021/11/14 01:20:21;;;;;;;24.75;17.48;;;10.30;99.90;;;;;;5034621;28;20014;-87
2021/11/14 01:22:47;;;;;;;24.42;16.10;;;10.30;99.90;;;;;;5043587;28;20057;-87
2021/11/14 01:25:17;;;;;;;25.33;16.80;;;10.30;99.90;;;;;;5035009;28;20027;-87
2021/11/14 01:27:44;;;;;;;23.75;16.73;;;10.30;99.90;;;;;;5039492;28;20119;-87
2021/11/14 01:30:16;;;;;;;23.02;16.30;;;10.30;99.90;;;;;;5034771;28;20030;-87
2021/11/14 01:32:42;;;;;;;22.67;15.63;;;10.30;99.90;;;;;;5043156;28;20016;-88
2021/11/14 01:35:10;;;;;;;21.88;15.35;;;10.30;99.90;;;;;;5035165;28;20025;-87
2021/11/14 01:37:40;;;;;;;23.60;16.25;;;10.30;99.90;;;;;;5029141;28;20021;-87
2021/11/14 01:40:13;;;;;;;24.45;16.20;;;10.30;99.90;;;;;;5036524;28;20096;-88
2021/11/14 01:42:40;;;;;;;23.33;15.85;;;10.30;99.90;;;;;;5055874;28;20029;-86
2021/11/14 01:45:07;;;;;;;22.13;15.63;;;10.20;99.90;;;;;;5019901;28;20041;-87
2021/11/14 01:47:33;;;;;;;22.75;15.45;;;10.20;99.90;;;;;;5046431;28;20022;-87
2021/11/14 01:49:59;;;;;;;22.45;16.20;;;10.30;99.90;;;;;;5031225;28;20060;-87
2021/11/14 01:52:28;;;;;;;23.85;15.57;;;10.30;99.90;;;;;;5030180;28;20033;-87
2021/11/14 01:54:54;;;;;;;22.33;15.57;;;10.30;99.90;;;;;;5040053;28;20033;-87
2021/11/14 01:57:21;;;;;;;22.65;16.30;;;10.30;99.90;;;;;;5035525;28;20014;-87
2021/11/14 01:59:48;;;;;;;22.13;15.50;;;10.30;99.90;;;;;;5026599;28;20031;-88
2021/11/14 02:02:14;;;;;;;23.85;15.80;;;10.30;99.90;;;;;;5021686;28;20032;-87
2021/11/14 02:04:41;;;;;;;22.65;16.02;;;10.30;99.90;;;;;;5019642;28;20112;-87
2021/11/14 02:07:09;;;;;;;24.83;17.77;;;10.30;99.90;;;;;;5034372;28;20026;-87
2021/11/14 02:09:35;;;;;;;22.50;15.98;;;10.30;99.90;;;;;;5033339;28;20068;-87
2021/11/14 02:12:03;;;;;;;24.50;16.08;;;10.20;99.90;;;;;;5033371;28;20453;-87
2021/11/14 02:14:28;;;;;;;24.60;16.33;;;10.30;99.90;;;;;;5049508;28;20032;-87
2021/11/14 02:16:55;;;;;;;22.85;16.33;;;10.20;99.90;;;;;;5037055;28;20049;-87
2021/11/14 02:19:21;;;;;;;22.05;16.40;;;10.30;99.90;;;;;;5047163;28;20025;-87
2021/11/14 02:21:46;;;;;;;21.83;15.63;;;10.20;99.90;;;;;;5046061;28;20081;-87
2021/11/14 02:24:12;;;;;;;24.02;17.27;;;10.20;99.90;;;;;;5061704;28;20113;-88
2021/11/14 02:26:38;;;;;;;25.02;15.98;;;10.20;99.90;;;;;;5056173;28;20021;-87
2021/11/14 02:29:04;;;;;;;23.70;17.00;;;10.20;99.90;;;;;;5029328;28;20029;-87
2021/11/14 02:31:30;;;;;;;20.50;15.38;;;10.20;99.90;;;;;;5015612;28;20467;-87
2021/11/14 02:33:57;;;;;;;21.85;15.73;;;10.20;99.90;;;;;;5044244;28;20116;-87
2021/11/14 02:36:24;;;;;;;23.33;16.20;;;10.20;99.90;;;;;;5033142;28;20017;-87
2021/11/14 02:38:50;;;;;;;24.27;16.98;;;10.20;99.90;;;;;;5031437;28;20030;-86
2021/11/14 02:41:16;;;;;;;25.52;17.17;;;10.20;99.90;;;;;;5010643;28;20048;-86
2021/11/14 02:43:44;;;;;;;25.20;16.83;;;10.20;99.90;;;;;;5005563;28;20029;-87
2021/11/14 02:46:10;;;;;;;24.67;17.85;;;10.20;99.90;;;;;;5018299;28;20029;-87
2021/11/14 02:48:36;;;;;;;25.25;17.33;;;10.20;99.90;;;;;;5018553;28;20407;-87
2021/11/14 02:51:06;;;;;;;25.60;17.38;;;10.20;99.90;;;;;;5020830;28;20025;-86
2021/11/14 02:53:33;;;;;;;23.57;16.23;;;10.20;99.90;;;;;;5041445;28;20063;-86
2021/11/14 02:55:59;;;;;;;25.05;16.55;;;10.20;99.90;;;;;;5000194;28;20034;-86
2021/11/14 02:58:27;;;;;;;26.95;17.70;;;10.20;99.90;;;;;;5017299;28;20029;-86
2021/11/14 03:01:03;;;;;;;23.45;16.08;;;10.20;99.90;;;;;;5040963;28;20068;-86
2021/11/14 03:03:30;;;;;;;26.98;16.48;;;10.20;99.90;;;;;;5028624;28;20029;-86
2021/11/14 03:05:56;;;;;;;26.63;16.60;;;10.20;99.90;;;;;;5037777;28;20025;-86
2021/11/14 03:08:22;;;;;;;26.52;17.23;;;10.30;99.90;;;;;;5027457;28;20103;-87
2021/11/14 03:10:48;;;;;;;26.63;16.50;;;10.30;99.90;;;;;;5009431;28;20049;-87
2021/11/14 03:13:17;;;;;;;29.75;17.73;;;10.30;99.90;;;;;;5025899;28;20085;-87
2021/11/14 03:15:50;;;;;;;29.73;17.63;;;10.30;99.90;;;;;;5035333;28;20017;-87
2021/11/14 03:18:19;;;;;;;26.30;16.80;;;10.30;99.90;;;;;;5041654;28;20024;-87
2021/11/14 03:20:47;;;;;;;27.80;17.80;;;10.30;99.90;;;;;;5039793;28;20028;-87
2021/11/14 03:23:14;;;;;;;30.02;18.65;;;10.30;99.90;;;;;;5030890;28;20013;-87
2021/11/14 03:25:40;;;;;;;31.33;18.38;;;10.30;99.90;;;;;;5044898;28;20013;-86
2021/11/14 03:28:06;;;;;;;31.20;18.10;;;10.30;99.90;;;;;;5026011;28;20161;-86
2021/11/14 03:30:33;;;;;;;30.67;18.15;;;10.30;99.90;;;;;;5043051;28;20032;-86
2021/11/14 03:33:11;;;;;;;32.70;19.20;;;10.30;99.90;;;;;;5039265;28;20018;-87
2021/11/14 03:36:03;;;;;;;35.80;19.35;;;10.30;99.90;;;;;;5034977;28;20146;-87
2021/11/14 03:38:40;;;;;;;34.58;19.85;;;10.30;99.90;;;;;;5034321;28;20025;-86
2021/11/14 03:41:10;;;;;;;32.60;19.15;;;10.30;99.90;;;;;;5028169;28;20037;-86
2021/11/14 03:43:37;;;;;;;38.28;21.27;;;10.30;99.90;;;;;;5042480;28;20016;-85
2021/11/14 03:46:04;;;;;;;35.72;20.40;;;10.30;99.90;;;;;;5026157;28;20070;-86
2021/11/14 03:48:30;;;;;;;39.45;21.25;;;10.30;99.90;;;;;;5020445;28;20032;-86
2021/11/14 03:50:57;;;;;;;38.35;21.55;;;10.30;99.90;;;;;;5022702;28;20032;-86
2021/11/14 03:53:23;;;;;;;41.83;22.70;;;10.30;99.90;;;;;;5026439;28;20013;-86
2021/11/14 03:55:50;;;;;;;41.35;21.90;;;10.40;99.90;;;;;;5059587;28;20045;-86
2021/11/14 03:58:17;;;;;;;46.67;23.63;;;10.30;99.90;;;;;;5013389;28;20133;-86
2021/11/14 04:00:46;;;;;;;45.10;23.85;;;10.40;99.90;;;;;;5043358;28;20111;-86
2021/11/14 04:03:13;;;;;;;46.22;24.00;;;10.40;99.90;;;;;;5045719;28;20112;-86
2021/11/14 04:05:41;;;;;;;37.47;21.42;;;10.40;99.90;;;;;;5037299;28;20056;-86
2021/11/14 04:08:10;;;;;;;47.53;23.40;;;10.40;99.90;;;;;;5033410;28;20018;-86
2021/11/14 04:10:36;;;;;;;48.40;24.65;;;10.40;99.90;;;;;;5040248;28;20025;-86
2021/11/14 04:13:02;;;;;;;47.47;24.23;;;10.40;99.90;;;;;;5040835;28;20411;-86
2021/11/14 04:15:28;;;;;;;45.40;23.35;;;10.40;99.90;;;;;;5021319;28;20022;-86
2021/11/14 04:17:57;;;;;;;44.60;23.52;;;10.40;99.90;;;;;;5021564;28;20040;-87
2021/11/14 04:20:27;;;;;;;45.88;22.70;;;10.40;99.90;;;;;;5034811;28;20036;-86
2021/11/14 04:22:54;;;;;;;44.03;23.55;;;10.40;99.90;;;;;;5046210;28;20366;-86
2021/11/14 04:25:20;;;;;;;46.17;23.60;;;10.40;99.90;;;;;;4994707;28;20057;-86
2021/11/14 04:27:52;;;;;;;43.90;23.02;;;10.40;99.90;;;;;;5038006;28;20025;-86
2021/11/14 04:30:19;;;;;;;47.17;25.02;;;10.40;99.90;;;;;;5026451;28;20029;-86
2021/11/14 04:32:45;;;;;;;47.08;23.98;;;10.40;99.90;;;;;;5049409;28;20071;-86
2021/11/14 04:35:11;;;;;;;47.33;23.42;;;10.40;99.90;;;;;;5046856;28;20029;-86
2021/11/14 04:37:37;;;;;;;45.53;24.33;;;10.40;99.90;;;;;;5024709;28;20422;-86
2021/11/14 04:40:06;;;;;;;47.80;24.52;;;10.40;99.90;;;;;;5038613;28;20021;-86
2021/11/14 04:42:33;;;;;;;52.53;25.45;;;10.40;99.90;;;;;;5024386;28;20069;-86
2021/11/14 04:44:59;;;;;;;46.75;23.17;;;10.40;99.90;;;;;;5035163;28;20036;-86
2021/11/14 04:47:25;;;;;;;45.20;23.90;;;10.40;99.90;;;;;;5018696;28;20120;-86
2021/11/14 04:49:50;;;;;;;46.75;24.05;;;10.40;99.90;;;;;;5004856;28;20021;-87
2021/11/14 04:52:16;;;;;;;44.05;23.88;;;10.40;99.90;;;;;;5027212;28;20060;-86
2021/11/14 04:54:42;;;;;;;46.45;23.67;;;10.40;99.90;;;;;;4988844;28;20035;-86
2021/11/14 04:57:08;;;;;;;44.72;24.02;;;10.40;99.90;;;;;;5021923;28;20036;-86
2021/11/14 04:59:33;;;;;;;50.35;23.60;;;10.40;99.90;;;;;;5006683;28;20475;-86
2021/11/14 05:01:59;;;;;;;47.08;25.10;;;10.40;99.90;;;;;;5018430;28;20025;-86
2021/11/14 05:04:26;;;;;;;45.72;23.35;;;10.50;99.90;;;;;;5028126;28;20033;-86
2021/11/14 05:06:51;;;;;;;49.22;24.50;;;10.40;99.90;;;;;;5019918;28;20121;-87
2021/11/14 05:09:17;;;;;;;47.42;23.23;;;10.40;99.90;;;;;;5031533;28;20091;-87
2021/11/14 05:11:43;;;;;;;46.95;24.88;;;10.40;99.90;;;;;;5056962;28;20033;-87
2021/11/14 05:14:08;;;;;;;49.78;24.17;;;10.40;99.90;;;;;;5057607;28;20041;-87
2021/11/14 05:16:34;;;;;;;51.70;24.58;;;10.40;99.90;;;;;;5041415;28;20030;-87
2021/11/14 05:18:59;;;;;;;47.85;25.25;;;10.40;99.90;;;;;;5027430;28;20029;-83
2021/11/14 05:21:25;;;;;;;48.22;25.25;;;10.40;99.90;;;;;;5024045;28;20034;-82
2021/11/14 05:23:51;;;;;;;44.65;22.95;;;10.40;99.90;;;;;;5017317;28;20374;-82
2021/11/14 05:26:17;;;;;;;45.22;23.77;;;10.40;99.90;;;;;;4984727;28;20021;-82
2021/11/14 05:28:43;;;;;;;45.92;23.23;;;10.50;99.90;;;;;;5006677;28;20036;-82
2021/11/14 05:31:09;;;;;;;45.45;23.40;;;10.40;99.90;;;;;;5017065;28;20029;-82
2021/11/14 05:33:34;;;;;;;46.85;24.75;;;10.40;99.90;;;;;;5048398;28;20087;-82
2021/11/14 05:36:00;;;;;;;50.63;24.83;;;10.40;99.90;;;;;;5036680;28;20029;-82
2021/11/14 05:38:26;;;;;;;45.55;23.17;;;10.50;99.90;;;;;;5020452;28;20031;-82
2021/11/14 05:40:52;;;;;;;49.28;24.23;;;10.50;99.90;;;;;;5039048;28;20065;-82
2021/11/14 05:43:17;;;;;;;48.55;24.52;;;10.40;99.90;;;;;;5044031;28;20033;-82
2021/11/14 05:45:44;;;;;;;48.97;24.67;;;10.40;99.90;;;;;;4999241;28;20422;-82
2021/11/14 05:48:10;;;;;;;50.40;25.05;;;10.50;99.90;;;;;;5031684;28;20017;-82
2021/11/14 05:50:36;;;;;;;46.28;23.73;;;10.50;99.90;;;;;;5006720;28;20385;-82
2021/11/14 05:53:27;;;;;;;48.22;24.33;;;10.40;99.90;;;;;;5023486;28;20029;-82
2021/11/14 05:55:52;;;;;;;45.75;23.65;;;10.40;99.90;;;;;;5017721;28;20026;-82
2021/11/14 05:58:28;;;;;;;42.35;22.42;;;10.40;99.90;;;;;;5028352;28;20055;-82
2021/11/14 06:03:33;;;;;;;45.85;23.33;;;10.40;99.90;;;;;;5016871;28;20424;-82
2021/11/14 06:06:00;;;;;;;53.33;25.67;;;10.40;99.90;;;;;;5002334;28;20034;-86
2021/11/14 06:08:25;;;;;;;49.33;25.13;;;10.40;99.90;;;;;;5017249;28;20540;-86
2021/11/14 06:10:53;;;;;;;49.75;24.05;;;10.40;99.90;;;;;;4984639;28;20124;-86
2021/11/14 06:13:23;;;;;;;47.78;23.95;;;10.40;99.90;;;;;;5007161;28;20021;-86
2021/11/14 06:15:50;;;;;;;47.03;23.40;;;10.40;99.90;;;;;;5025206;28;20107;-86
2021/11/14 06:18:15;;;;;;;45.60;23.67;;;10.40;99.90;;;;;;5053177;28;20019;-86
2021/11/14 06:20:43;;;;;;;52.00;24.23;;;10.40;99.90;;;;;;5010421;28;20484;-86
2021/11/14 06:23:10;;;;;;;45.92;23.35;;;10.40;99.90;;;;;;5017242;28;20383;-86
2021/11/14 06:25:36;;;;;;;44.78;22.02;;;10.40;99.90;;;;;;5000938;28;20021;-86
2021/11/14 06:28:03;;;;;;;47.03;22.70;;;10.40;99.90;;;;;;5016989;28;20029;-86
2021/11/14 06:30:29;;;;;;;45.95;23.13;;;10.50;99.90;;;;;;5034809;28;20040;-86
2021/11/14 06:32:55;;;;;;;42.38;21.80;;;10.40;99.90;;;;;;5033393;28;20068;-86
2021/11/14 06:35:21;;;;;;;43.50;21.70;;;10.40;99.90;;;;;;5016121;28;20021;-86
2021/11/14 06:37:47;;;;;;;42.30;21.88;;;10.40;99.90;;;;;;5016745;28;20108;-86
2021/11/14 06:40:16;;;;;;;42.95;22.50;;;10.40;99.90;;;;;;5000272;28;20427;-86
2021/11/14 06:42:42;;;;;;;46.53;23.48;;;10.40;99.90;;;;;;5000965;28;20034;-86
2021/11/14 06:45:09;;;;;;;49.08;23.80;;;10.50;99.90;;;;;;5016699;28;20021;-86
2021/11/14 06:47:35;;;;;;;46.47;23.20;;;10.50;99.90;;;;;;5000971;28;20037;-86
2021/11/14 06:50:02;;;;;;;42.70;22.77;;;10.50;99.90;;;;;;5030151;28;20155;-86
2021/11/14 06:52:28;;;;;;;44.35;22.70;;;10.50;99.90;;;;;;5002693;28;20044;-86
2021/11/14 06:54:53;;;;;;;46.97;23.58;;;10.50;99.90;;;;;;5028235;28;20478;-86
2021/11/14 06:57:19;;;;;;;45.58;22.92;;;10.50;99.90;;;;;;5016247;28;20071;-86
2021/11/14 06:59:46;;;;;;;42.00;21.98;;;10.50;99.90;;;;;;4994282;28;20528;-82
2021/11/14 07:02:12;;;;;;;43.40;21.50;;;10.50;99.90;;;;;;5034048;28;20044;-82
2021/11/14 07:04:39;;;;;;;41.40;22.27;;;10.50;99.90;;;;;;4997207;28;20109;-87
2021/11/14 07:07:05;;;;;;;43.80;21.63;;;10.50;99.90;;;;;;5035781;28;20033;-87
2021/11/14 07:09:34;;;;;;;41.63;21.52;;;10.50;99.90;;;;;;5021329;28;20025;-88
2021/11/14 07:12:00;;;;;;;42.15;21.45;;;10.50;99.90;;;;;;5030463;28;20025;-87
2021/11/14 07:14:27;;;;;;;40.58;22.02;;;10.50;99.90;;;;;;4991309;28;20030;-82
2021/11/14 07:16:54;;;;;;;41.38;22.00;;;10.50;99.90;;;;;;5025854;28;20018;-82
2021/11/14 07:19:20;;;;;;;43.58;21.63;;;10.50;99.90;;;;;;5017333;28;20029;-82
2021/11/14 07:21:46;;;;;;;43.03;21.80;;;10.50;99.90;;;;;;5035403;28;20021;-82
2021/11/14 07:24:13;;;;;;;41.30;21.83;;;10.50;99.90;;;;;;5038209;28;20479;-82
2021/11/14 07:26:40;;;;;;;43.72;20.70;;;10.50;99.90;;;;;;5002130;28;20014;-82
2021/11/14 07:29:08;;;;;;;43.17;21.50;;;10.50;99.90;;;;;;5015540;28;20022;-81
2021/11/14 07:31:44;;;;;;;43.47;21.05;;;10.50;99.90;;;;;;4999443;28;20064;-82
2021/11/14 07:34:09;;;;;;;43.03;21.75;;;10.40;99.90;;;;;;5027309;28;20067;-81
2021/11/14 07:36:35;;;;;;;40.55;21.08;;;10.50;99.90;;;;;;5033868;28;20021;-82
2021/11/14 07:39:01;;;;;;;42.90;20.98;;;10.50;99.90;;;;;;5015630;28;20025;-82
2021/11/14 07:41:27;;;;;;;42.80;20.63;;;10.50;99.90;;;;;;5017528;28;20045;-82
2021/11/14 07:43:52;;;;;;;41.20;20.88;;;10.50;99.90;;;;;;4995419;28;20386;-82
2021/11/14 07:46:18;;;;;;;44.55;21.92;;;10.50;99.90;;;;;;5017075;28;20394;-82
2021/11/14 07:48:44;;;;;;;40.55;20.55;;;10.50;99.90;;;;;;5003051;28;20111;-82
2021/11/14 07:51:10;;;;;;;40.58;20.60;;;10.50;99.90;;;;;;5018945;28;20383;-82
2021/11/14 07:53:36;;;;;;;40.63;19.33;;;10.50;99.90;;;;;;5030520;28;20033;-82
2021/11/14 07:56:03;;;;;;;41.95;21.02;;;10.40;99.90;;;;;;4992145;28;20029;-81
2021/11/14 07:58:29;;;;;;;35.67;17.88;;;10.50;99.90;;;;;;5035322;28;20482;-82
2021/11/14 08:00:54;;;;;;;42.55;19.17;;;10.50;99.90;;;;;;5008355;28;20032;-82
2021/11/14 08:03:23;;;;;;;34.15;17.30;;;10.40;99.90;;;;;;5038647;28;20056;-82
2021/11/14 08:05:49;;;;;;;36.13;17.58;;;10.40;99.90;;;;;;4993070;28;20060;-82
2021/11/14 08:08:15;;;;;;;40.85;18.27;;;10.40;99.90;;;;;;5041068;28;20098;-82
2021/11/14 08:10:41;;;;;;;43.60;18.63;;;10.50;99.90;;;;;;5035415;28;20092;-82
2021/11/14 08:13:08;;;;;;;39.22;18.05;;;10.50;99.90;;;;;;5002692;28;20502;-82
2021/11/14 08:15:36;;;;;;;37.70;17.90;;;10.50;99.90;;;;;;5002527;28;20076;-82
2021/11/14 08:18:03;;;;;;;37.00;17.30;;;10.50;99.90;;;;;;5018348;28;20067;-82
2021/11/14 08:20:32;;;;;;;39.67;18.50;;;10.50;99.90;;;;;;5013547;28;20489;-82
2021/11/14 08:23:00;;;;;;;35.03;16.80;;;10.50;99.90;;;;;;5008292;28;20017;-82
2021/11/14 08:25:27;;;;;;;36.97;17.88;;;10.50;99.90;;;;;;5018426;28;20111;-82
2021/11/14 08:27:53;;;;;;;39.97;18.30;;;10.50;99.90;;;;;;5018393;28;20029;-82
2021/11/14 08:30:19;;;;;;;38.58;17.92;;;10.50;99.90;;;;;;5024983;28;20433;-82
2021/11/14 08:32:46;;;;;;;40.08;17.50;;;10.50;99.90;;;;;;5037602;28;20056;-82
2021/11/14 08:35:12;;;;;;;32.55;16.80;;;10.50;99.90;;;;;;5015115;28;20029;-82
2021/11/14 08:37:38;;;;;;;35.38;16.25;;;10.50;99.90;;;;;;5018179;28;20026;-82
2021/11/14 08:40:06;;;;;;;35.88;17.05;;;10.50;99.90;;;;;;5022474;28;20108;-82
2021/11/14 08:42:31;;;;;;;35.78;16.80;;;10.50;99.90;;;;;;5027119;28;20050;-82
2021/11/14 08:44:57;;;;;;;36.47;16.88;;;10.50;99.90;;;;;;5015425;28;20076;-82
2021/11/14 08:47:23;;;;;;;36.20;17.02;;;10.50;99.90;;;;;;5026601;28;20044;-82
2021/11/14 08:49:50;;;;;;;36.17;17.30;;;10.50;99.90;;;;;;5037704;28;20029;-82
2021/11/14 08:52:16;;;;;;;37.13;17.08;;;10.50;99.90;;;;;;5037870;28;20021;-82
2021/11/14 08:54:42;;;;;;;36.83;17.58;;;10.50;99.90;;;;;;5024716;28;20030;-82
2021/11/14 08:57:10;;;;;;;34.17;16.88;;;10.50;99.90;;;;;;5001102;28;20025;-82
2021/11/14 08:59:36;;;;;;;35.97;16.65;;;10.50;99.90;;;;;;5017658;28;20018;-82
2021/11/14 09:02:03;;;;;;;38.53;16.50;;;10.60;99.90;;;;;;5031441;28;20470;-82
2021/11/14 09:04:29;;;;;;;33.00;16.25;;;10.50;99.90;;;;;;5027070;28;20021;-82
2021/11/14 09:06:55;;;;;;;31.48;15.40;;;10.60;99.90;;;;;;5038452;28;20048;-82
2021/11/14 09:09:22;;;;;;;35.05;16.52;;;10.60;99.90;;;;;;5008531;28;20543;-82
2021/11/14 09:11:49;;;;;;;34.92;16.75;;;10.60;99.90;;;;;;5053916;28;20048;-82
2021/11/14 09:14:16;;;;;;;32.10;15.55;;;10.60;99.90;;;;;;5020429;28;20025;-82
2021/11/14 09:16:44;;;;;;;32.83;16.38;;;10.60;99.90;;;;;;5029082;28;20098;-82
2021/11/14 09:19:09;;;;;;;30.27;15.55;;;10.60;99.90;;;;;;5017188;28;20014;-81
2021/11/14 09:21:37;;;;;;;31.27;15.85;;;10.60;99.90;;;;;;5023698;28;20120;-82
2021/11/14 09:24:03;;;;;;;27.73;14.95;;;10.60;99.90;;;;;;5024990;28;20088;-82
2021/11/14 09:26:29;;;;;;;34.15;15.68;;;10.60;99.90;;;;;;5027557;28;20498;-82
2021/11/14 09:28:55;;;;;;;31.10;14.60;;;10.60;99.90;;;;;;4991989;28;20029;-82
2021/11/14 09:31:21;;;;;;;31.67;15.77;;;10.60;99.90;;;;;;5030929;28;20029;-81
2021/11/14 09:33:47;;;;;;;32.55;15.65;;;10.60;99.90;;;;;;5000952;28;20029;-82
2021/11/14 09:36:13;;;;;;;35.33;16.60;;;10.60;99.90;;;;;;5017581;28;20033;-82
2021/11/14 09:38:39;;;;;;;31.27;14.70;;;10.60;99.90;;;;;;5020270;28;20018;-82
2021/11/14 09:41:08;;;;;;;30.20;15.07;;;10.60;99.90;;;;;;5027411;28;20095;-82
2021/11/14 09:43:35;;;;;;;29.85;15.45;;;10.60;99.90;;;;;;5028952;28;20029;-82
2021/11/14 09:46:04;;;;;;;30.60;15.68;;;10.60;99.90;;;;;;5020840;28;20018;-81
2021/11/14 09:48:30;;;;;;;30.50;14.02;;;10.60;99.90;;;;;;5032758;28;20021;-81
2021/11/14 09:50:57;;;;;;;32.03;14.68;;;10.60;99.90;;;;;;5010327;28;20036;-81
2021/11/14 09:53:35;;;;;;;32.08;15.23;;;10.70;99.90;;;;;;5004285;28;20368;-81
2021/11/14 09:56:02;;;;;;;33.72;14.90;;;10.60;99.90;;;;;;5029757;28;20131;-81
2021/11/14 09:58:28;;;;;;;30.60;14.52;;;10.60;99.90;;;;;;5031567;28;20029;-81
2021/11/14 10:00:55;;;;;;;33.42;16.33;;;10.60;99.90;;;;;;5016165;28;20364;-82
2021/11/14 10:03:21;;;;;;;34.25;15.38;;;10.70;99.90;;;;;;4985922;28;20033;-82
2021/11/14 10:05:51;;;;;;;33.33;14.95;;;10.70;99.90;;;;;;4999922;28;20080;-82
2021/11/14 10:08:19;;;;;;;32.20;15.75;;;10.70;99.90;;;;;;5031592;28;20439;-82
2021/11/14 10:11:32;;;;;;;31.30;15.02;;;10.70;99.90;;;;;;5041990;28;20029;-81
2021/11/14 10:14:15;;;;;;;31.58;15.70;;;10.70;99.90;;;;;;5023053;28;20025;-80
2021/11/14 10:16:41;;;;;;;31.63;15.77;;;10.70;99.90;;;;;;5025963;28;20036;-81
2021/11/14 10:19:14;;;;;;;31.58;16.13;;;10.70;99.90;;;;;;5006978;28;20025;-81
2021/11/14 10:21:40;;;;;;;34.33;16.48;;;10.70;99.90;;;;;;5028786;28;20379;-81
2021/11/14 10:24:10;;;;;;;36.78;15.55;;;10.70;99.90;;;;;;5018690;28;20060;-80
2021/11/14 10:26:37;;;;;;;30.17;16.23;;;10.70;99.90;;;;;;5016478;28;20022;-83
2021/11/14 10:29:06;;;;;;;31.27;15.88;;;10.80;99.90;;;;;;5015080;28;20597;-83
2021/11/14 10:31:34;;;;;;;32.47;15.90;;;10.70;99.90;;;;;;5033248;28;20013;-81
2021/11/14 10:34:03;;;;;;;32.53;15.52;;;10.80;99.90;;;;;;5044488;28;20021;-81
2021/11/14 10:36:31;;;;;;;39.35;16.83;;;10.70;99.90;;;;;;5010997;28;20467;-81
2021/11/14 10:39:05;;;;;;;37.20;16.23;;;10.80;99.90;;;;;;4999268;28;20471;-81
2021/11/14 10:41:31;;;;;;;34.40;16.00;;;10.80;99.90;;;;;;5044677;28;20045;-81
2021/11/14 10:44:18;;;;;;;33.70;16.15;;;10.80;99.90;;;;;;5035139;28;20040;-81
2021/11/14 10:46:44;;;;;;;31.70;15.80;;;10.80;99.90;;;;;;5031439;28;20033;-81
2021/11/14 10:49:11;;;;;;;34.42;16.00;;;10.80;99.90;;;;;;5026409;28;20616;-81
2021/11/14 10:51:38;;;;;;;33.22;15.82;;;10.80;99.90;;;;;;5032225;28;20080;-81
2021/11/14 10:54:05;;;;;;;33.35;17.38;;;10.90;99.90;;;;;;5034014;28;20437;-81
2021/11/14 10:56:30;;;;;;;32.03;15.25;;;10.90;99.90;;;;;;5021477;23;20355;-86
2021/11/14 10:58:56;;;;;;;34.13;17.08;;;10.90;99.90;;;;;;5012789;28;20121;-86
2021/11/14 11:01:23;;;;;;;33.92;17.50;;;10.90;99.90;;;;;;4983526;28;20467;-86
2021/11/14 11:03:51;;;;;;;36.47;17.52;;;10.90;99.90;;;;;;5017915;28;20026;-86
2021/11/14 11:06:28;;;;;;;35.53;18.13;;;10.90;99.90;;;;;;5013790;28;20028;-85
2021/11/14 11:09:03;;;;;;;33.22;16.85;;;10.90;99.90;;;;;;5014942;28;20081;-85
2021/11/14 11:11:29;;;;;;;33.67;16.60;;;10.90;99.90;;;;;;5015525;28;20018;-85
2021/11/14 11:13:55;;;;;;;36.08;16.52;;;10.90;99.90;;;;;;4995546;28;20057;-85
2021/11/14 11:16:25;;;;;;;34.40;17.58;;;11.00;99.90;;;;;;5008011;28;20025;-85
2021/11/14 11:19:06;;;;;;;36.80;18.75;;;11.00;99.90;;;;;;5039335;28;20095;-85
2021/11/14 11:21:37;;;;;;;40.78;18.60;;;11.00;99.90;;;;;;5024071;28;20044;-85
2021/11/14 11:24:09;;;;;;;36.05;18.30;;;11.00;99.90;;;;;;5020634;28;20014;-85
2021/11/14 11:26:35;;;;;;;37.08;18.50;;;11.00;99.90;;;;;;5022499;28;20071;-85
2021/11/14 11:29:00;;;;;;;40.33;19.05;;;11.00;99.90;;;;;;5007814;28;20021;-85
2021/11/14 11:31:26;;;;;;;39.55;18.35;;;11.00;99.90;;;;;;5006407;28;20056;-85
2021/11/14 11:33:56;;;;;;;37.90;19.20;;;11.00;99.90;;;;;;4993258;28;20025;-85
2021/11/14 11:36:24;;;;;;;39.25;19.48;;;11.00;99.90;;;;;;5004944;28;20033;-85
2021/11/14 11:38:53;;;;;;;38.15;18.77;;;11.00;99.90;;;;;;5022574;28;20028;-85
2021/11/14 11:42:03;;;;;;;43.75;19.33;;;11.10;99.90;;;;;;5004438;28;20498;-85
2021/11/14 11:44:29;;;;;;;40.85;18.85;;;11.00;99.90;;;;;;5024172;28;20510;-86
2021/11/14 11:47:09;;;;;;;40.15;19.17;;;11.10;99.90;;;;;;5001188;28;20026;-86
2021/11/14 11:49:39;;;;;;;39.78;20.15;;;11.00;99.90;;;;;;5025298;28;20029;-85
2021/11/14 11:52:19;;;;;;;41.25;20.00;;;11.10;99.90;;;;;;5019056;28;20037;-85
2021/11/14 11:54:48;;;;;;;39.05;20.08;;;11.10;99.90;;;;;;5019873;28;20034;-85
2021/11/14 11:57:17;;;;;;;39.08;19.60;;;11.10;99.90;;;;;;5018890;28;20037;-85
2021/11/14 12:00:00;;;;;;;38.88;19.77;;;11.10;99.90;;;;;;5015735;28;20375;-85
2021/11/14 12:02:28;;;;;;;39.03;18.95;;;11.10;99.90;;;;;;5020122;28;20471;-85
2021/11/14 12:05:09;;;;;;;40.55;20.63;;;11.10;99.90;;;;;;5009375;28;20021;-85
2021/11/14 12:07:50;;;;;;;38.13;19.80;;;11.20;99.90;;;;;;5041920;28;20025;-88
2021/11/14 12:10:23;;;;;;;42.53;22.27;;;11.10;99.90;;;;;;5009037;28;20431;-86
2021/11/14 12:13:04;;;;;;;42.03;21.25;;;11.10;99.90;;;;;;5036449;28;20021;-86
2021/11/14 12:15:31;;;;;;;;;;;11.20;99.90;;;;;;5021839;28;20033;-85
2021/11/14 12:18:04;;;;;;;42.40;20.38;;;11.10;99.90;;;;;;5020597;28;19905;-86
2021/11/14 12:20:35;;;;;;;39.22;19.85;;;11.10;99.90;;;;;;5029023;28;20021;-84
2021/11/14 12:23:04;;;;;;;40.08;20.33;;;11.20;99.90;;;;;;5026651;28;20037;-86
2021/11/14 12:25:37;;;;;;;39.53;20.58;;;11.20;99.90;;;;;;5036928;28;20032;-86
2021/11/14 12:28:05;;;;;;;44.33;21.85;;;11.20;99.90;;;;;;5019171;28;20026;-87
2021/11/14 12:30:32;;;;;;;39.03;19.25;;;11.20;99.90;;;;;;5024766;28;20089;-86
2021/11/14 12:32:58;;;;;;;39.10;19.40;;;11.20;99.90;;;;;;5038043;28;20056;-86
2021/11/14 12:35:35;;;;;;;39.20;18.98;;;11.30;99.90;;;;;;5018007;28;20032;-86